Terminal Aerodrome Forecast
Issued by NWS

Home | Current Version | Previous Version | Text Only | Print | Product List | Glossary On
Versions: 1 2 3 4 5 6 7 8 9 10 11 12 13 14 15 16 17
000
FTUS45 KFGZ 172300
TAFPRC
TAF
KPRC 172324Z 1800/1824 21010G16KT P6SM FEW250
     FM180300 19005KT P6SM SCT250
     FM181800 18015G22KT P6SM OVC100=

USA.gov is the U.S. government's official web portal to all federal, state and local government web resources and services.